createdAt,value
2023-02-27T00:00:16.332Z,12.50
2023-02-27T00:04:16.332Z,12.51
2023-02-27T00:08:16.319Z,12.51
2023-02-27T00:12:16.337Z,12.50
2023-02-27T00:16:16.376Z,12.47
2023-02-27T00:20:16.300Z,12.46
2023-02-27T00:24:16.305Z,12.46
2023-02-27T00:28:16.284Z,12.47
2023-02-27T00:32:16.334Z,12.44
2023-02-27T00:36:16.343Z,12.44
2023-02-27T00:40:16.347Z,12.47
2023-02-27T00:44:16.352Z,12.43
2023-02-27T00:48:16.347Z,12.48
2023-02-27T00:52:16.368Z,12.47
2023-02-27T00:56:16.381Z,12.44
2023-02-27T01:00:16.355Z,12.44
2023-02-27T01:04:16.393Z,12.45
2023-02-27T01:08:16.445Z,12.42
2023-02-27T01:12:16.449Z,12.37
2023-02-27T01:16:16.541Z,12.35
2023-02-27T01:20:16.513Z,12.36
2023-02-27T01:24:16.575Z,12.32
2023-02-27T01:28:16.589Z,12.28
2023-02-27T01:32:16.826Z,12.31
2023-02-27T01:36:16.729Z,12.32
2023-02-27T01:40:16.896Z,12.31
2023-02-27T01:44:16.840Z,12.31
2023-02-27T01:48:16.967Z,12.32
2023-02-27T01:52:16.959Z,12.32
2023-02-27T01:56:17.012Z,12.34
2023-02-27T02:00:17.071Z,12.35
2023-02-27T02:04:17.138Z,12.33
2023-02-27T02:08:17.200Z,12.33
2023-02-27T02:12:17.231Z,12.33
2023-02-27T02:16:17.427Z,12.28
2023-02-27T02:20:17.368Z,12.29
2023-02-27T02:24:17.467Z,12.26
2023-02-27T02:28:17.566Z,12.22
2023-02-27T02:32:17.742Z,12.22
2023-02-27T02:36:17.749Z,12.21
2023-02-27T02:40:17.885Z,12.22
2023-02-27T02:44:18.001Z,12.19
2023-02-27T02:48:18.138Z,12.23
2023-02-27T02:52:18.187Z,12.22
2023-02-27T02:56:18.310Z,12.22
2023-02-27T03:00:18.420Z,12.20
2023-02-27T03:04:18.615Z,12.13
2023-02-27T03:08:18.641Z,12.11
2023-02-27T03:12:18.767Z,12.06
2023-02-27T03:16:18.862Z,12.08
2023-02-27T03:20:18.974Z,12.06
2023-02-27T03:24:19.110Z,12.05
2023-02-27T03:28:19.224Z,12.01
2023-02-27T03:32:19.376Z,11.99
2023-02-27T03:36:19.413Z,11.97
2023-02-27T03:40:19.542Z,11.90
2023-02-27T03:44:19.666Z,11.93
2023-02-27T03:48:19.774Z,11.93
2023-02-27T03:52:19.879Z,11.89
2023-02-27T03:56:19.976Z,11.92
2023-02-27T04:00:20.070Z,11.93
2023-02-27T04:04:20.158Z,11.90
2023-02-27T04:08:21.097Z,11.91
2023-02-27T04:12:20.416Z,11.92
2023-02-27T04:16:20.505Z,11.93
2023-02-27T04:20:20.611Z,11.91
2023-02-27T04:24:20.704Z,11.95
2023-02-27T04:28:20.822Z,11.96
2023-02-27T04:32:20.958Z,11.98
2023-02-27T04:36:21.032Z,11.95
2023-02-27T04:40:21.147Z,11.93
2023-02-27T04:44:21.270Z,11.89
2023-02-27T04:48:21.419Z,11.91
2023-02-27T04:52:21.606Z,11.91
2023-02-27T04:56:21.672Z,11.88
2023-02-27T05:00:21.782Z,11.92
2023-02-27T05:04:21.897Z,11.95
2023-02-27T05:08:22.022Z,11.93
2023-02-27T05:12:22.137Z,11.95
2023-02-27T05:16:22.325Z,11.97
2023-02-27T05:20:22.392Z,11.98
2023-02-27T05:24:22.490Z,11.99
2023-02-27T05:28:23.117Z,12.00
2023-02-27T05:32:22.715Z,11.97
2023-02-27T05:36:22.842Z,11.96
2023-02-27T05:40:22.937Z,11.96
2023-02-27T05:44:23.100Z,11.96
2023-02-27T05:48:23.209Z,11.97
2023-02-27T05:52:23.358Z,12.01
2023-02-27T05:56:23.463Z,12.10
2023-02-27T06:00:23.594Z,12.15
2023-02-27T06:04:23.714Z,12.18
2023-02-27T06:08:23.860Z,12.17
2023-02-27T06:12:23.972Z,12.18
2023-02-27T06:16:24.142Z,12.19
2023-02-27T06:20:24.220Z,12.21
2023-02-27T06:24:24.357Z,12.26
2023-02-27T06:28:24.430Z,12.30
2023-02-27T06:32:24.450Z,12.36
2023-02-27T06:36:24.540Z,12.43
2023-02-27T06:40:24.670Z,12.65
2023-02-27T06:44:24.664Z,12.94
2023-02-27T06:48:24.885Z,13.34
2023-02-27T06:52:25.149Z,13.79
2023-02-27T06:56:25.325Z,14.14
2023-02-27T07:00:25.667Z,14.46
2023-02-27T07:04:25.672Z,14.71
2023-02-27T07:08:25.418Z,15.14
2023-02-27T07:12:25.550Z,15.59
2023-02-27T07:16:25.891Z,15.60
2023-02-27T07:20:26.189Z,15.60
2023-02-27T07:24:25.700Z,15.61
2023-02-27T07:28:25.736Z,15.70
2023-02-27T07:32:26.274Z,15.85
2023-02-27T07:36:26.070Z,15.97
2023-02-27T07:40:25.800Z,16.09
2023-02-27T07:44:25.782Z,16.24
2023-02-27T07:48:26.155Z,16.99
2023-02-27T07:52:26.192Z,17.73
2023-02-27T07:56:25.839Z,18.30
2023-02-27T08:00:25.599Z,18.56
2023-02-27T08:04:25.631Z,18.67
2023-02-27T08:08:25.686Z,18.15
2023-02-27T08:12:25.514Z,17.63
2023-02-27T08:16:26.139Z,17.83
2023-02-27T08:20:25.471Z,18.25
2023-02-27T08:24:25.438Z,18.27
2023-02-27T08:28:25.372Z,18.27
2023-02-27T08:32:25.365Z,18.12
2023-02-27T08:36:25.729Z,17.84
2023-02-27T08:40:25.682Z,17.67
2023-02-27T08:44:25.707Z,17.51
2023-02-27T08:48:25.711Z,17.32
2023-02-27T08:52:25.225Z,17.18
2023-02-27T08:56:25.447Z,17.11
2023-02-27T09:00:25.362Z,17.06
2023-02-27T09:04:25.080Z,17.02
2023-02-27T09:08:25.128Z,16.94
2023-02-27T09:12:25.012Z,16.90
2023-02-27T09:16:25.119Z,16.89
2023-02-27T09:20:24.956Z,16.90
2023-02-27T09:24:24.936Z,16.85
2023-02-27T09:28:24.869Z,16.84
2023-02-27T09:32:24.906Z,16.85
2023-02-27T09:36:25.748Z,16.84
2023-02-27T09:40:25.199Z,16.88
2023-02-27T09:44:36.371Z,16.98
2023-02-27T09:48:25.809Z,17.06
2023-02-27T09:52:25.214Z,17.17
2023-02-27T09:56:25.449Z,17.26
2023-02-27T10:00:25.194Z,17.28
2023-02-27T10:04:25.696Z,17.32
2023-02-27T10:08:25.171Z,17.39
2023-02-27T10:12:25.322Z,17.50
2023-02-27T10:16:26.133Z,17.53
2023-02-27T10:20:25.516Z,17.55
2023-02-27T10:24:25.481Z,17.59
2023-02-27T10:28:25.422Z,17.66
2023-02-27T10:32:25.385Z,17.69
2023-02-27T10:36:33.584Z,17.74
2023-02-27T10:40:26.766Z,17.80
2023-02-27T10:44:25.730Z,17.79
2023-02-27T10:48:25.735Z,17.75
2023-02-27T10:52:25.197Z,17.79
2023-02-27T10:56:25.599Z,17.83
2023-02-27T11:00:25.708Z,17.88
2023-02-27T11:04:25.443Z,17.95
2023-02-27T11:08:25.411Z,18.12
2023-02-27T11:12:25.703Z,18.09
2023-02-27T11:16:25.420Z,18.11
2023-02-27T11:20:25.408Z,18.11
2023-02-27T11:24:25.380Z,18.12
2023-02-27T11:28:25.398Z,18.09
2023-02-27T11:32:25.437Z,18.08
2023-02-27T11:36:25.750Z,18.10
2023-02-27T11:40:25.774Z,18.13
2023-02-27T11:44:32.771Z,18.13
2023-02-27T11:48:26.385Z,18.17
2023-02-27T11:52:25.360Z,18.21
2023-02-27T11:56:25.730Z,18.23
2023-02-27T12:00:25.288Z,18.22
2023-02-27T12:04:25.785Z,18.20
2023-02-27T12:08:25.519Z,18.26
2023-02-27T12:12:25.747Z,18.34
2023-02-27T12:16:25.678Z,18.39
2023-02-27T12:20:25.432Z,18.47
2023-02-27T12:24:25.372Z,18.49
2023-02-27T12:28:25.758Z,18.48
2023-02-27T12:32:25.824Z,18.49
2023-02-27T12:36:25.257Z,18.33
2023-02-27T12:40:25.241Z,18.16
2023-02-27T12:44:25.197Z,18.04
2023-02-27T12:48:25.149Z,18.01
2023-02-27T12:52:25.113Z,17.98
2023-02-27T12:56:25.060Z,18.01
2023-02-27T13:00:25.250Z,18.03
2023-02-27T13:04:25.018Z,18.10
2023-02-27T13:08:24.966Z,18.11
2023-02-27T13:12:24.918Z,18.11
2023-02-27T13:16:25.279Z,18.13
2023-02-27T13:20:24.858Z,18.14
2023-02-27T13:24:25.296Z,18.13
2023-02-27T13:28:25.269Z,18.06
2023-02-27T13:32:30.009Z,17.98
2023-02-27T13:36:25.790Z,17.96
2023-02-27T13:40:24.763Z,17.94
2023-02-27T13:44:24.743Z,17.90
2023-02-27T13:48:24.688Z,17.90
2023-02-27T13:52:24.670Z,17.87
2023-02-27T13:56:24.641Z,17.83
2023-02-27T14:00:24.723Z,17.85
2023-02-27T14:04:24.877Z,17.84
2023-02-27T14:08:24.979Z,17.84
2023-02-27T14:12:27.092Z,17.84
2023-02-27T14:16:25.131Z,17.85
2023-02-27T14:20:24.991Z,17.84
2023-02-27T14:24:24.981Z,17.84
2023-02-27T14:28:24.940Z,17.84
2023-02-27T14:32:24.939Z,17.82
2023-02-27T14:36:24.920Z,17.83
2023-02-27T14:40:30.123Z,17.84
2023-02-27T14:44:25.798Z,17.85
2023-02-27T14:48:24.712Z,17.86
2023-02-27T14:52:24.713Z,17.87
2023-02-27T14:56:24.733Z,17.86
2023-02-27T15:00:24.908Z,17.85
2023-02-27T15:04:25.209Z,17.84
2023-02-27T15:08:25.657Z,17.84
2023-02-27T15:12:25.396Z,17.83
2023-02-27T15:16:25.932Z,17.83
2023-02-27T15:20:25.798Z,18.11
2023-02-27T15:24:25.776Z,18.05
2023-02-27T15:28:25.917Z,17.97
2023-02-27T15:32:26.097Z,17.91
2023-02-27T15:36:26.237Z,17.88
2023-02-27T15:40:26.406Z,17.86
2023-02-27T15:44:26.566Z,17.86
2023-02-27T15:48:26.723Z,17.83
2023-02-27T15:52:26.840Z,17.81
2023-02-27T15:56:26.984Z,17.81
2023-02-27T16:00:27.116Z,17.81
2023-02-27T16:04:27.265Z,17.83
2023-02-27T16:08:27.833Z,17.82
2023-02-27T16:12:27.534Z,17.79
2023-02-27T16:16:28.069Z,17.76
2023-02-27T16:20:27.785Z,17.77
2023-02-27T16:24:27.938Z,17.79
2023-02-27T16:28:28.053Z,17.81
2023-02-27T16:32:28.245Z,17.82
2023-02-27T16:36:28.677Z,17.83
2023-02-27T16:40:28.555Z,17.84
2023-02-27T16:44:28.642Z,17.82
2023-02-27T16:48:28.754Z,17.83
2023-02-27T16:52:28.958Z,17.82
2023-02-27T16:56:37.689Z,17.82
2023-02-27T17:00:30.086Z,17.81
2023-02-27T17:04:29.070Z,17.82
2023-02-27T17:08:28.988Z,17.85
2023-02-27T17:12:29.099Z,17.86
2023-02-27T17:16:29.667Z,17.85
2023-02-27T17:20:29.410Z,17.84
2023-02-27T17:24:29.611Z,17.84
2023-02-27T17:28:29.811Z,17.83
2023-02-27T17:32:30.038Z,17.82
2023-02-27T17:36:30.416Z,17.82
2023-02-27T17:40:29.997Z,17.82
2023-02-27T17:44:29.913Z,17.80
2023-02-27T17:48:29.885Z,17.78
2023-02-27T17:52:29.832Z,17.79
2023-02-27T17:56:30.186Z,17.79
2023-02-27T18:00:29.841Z,17.79
2023-02-27T18:04:29.821Z,17.77
2023-02-27T18:08:29.778Z,17.76
2023-02-27T18:12:29.771Z,17.74
2023-02-27T18:16:30.151Z,17.73
2023-02-27T18:20:29.638Z,17.71
2023-02-27T18:24:29.645Z,17.71
2023-02-27T18:28:29.577Z,17.71
2023-02-27T18:32:29.530Z,17.71
2023-02-27T18:36:30.015Z,17.71
2023-02-27T18:40:29.482Z,17.71
2023-02-27T18:44:29.441Z,17.71
2023-02-27T18:48:29.471Z,17.70
2023-02-27T18:52:29.389Z,17.69
2023-02-27T18:56:29.700Z,17.69
2023-02-27T19:00:29.290Z,17.68
2023-02-27T19:04:29.251Z,17.68
2023-02-27T19:08:29.238Z,17.68
2023-02-27T19:12:29.166Z,17.68
2023-02-27T19:16:29.469Z,17.68
2023-02-27T19:20:29.135Z,17.67
2023-02-27T19:24:29.062Z,17.67
2023-02-27T19:28:30.004Z,17.67
2023-02-27T19:32:28.993Z,17.65
2023-02-27T19:36:29.336Z,17.65
2023-02-27T19:40:28.951Z,17.65
2023-02-27T19:44:28.960Z,17.65
2023-02-27T19:48:28.885Z,17.64
2023-02-27T19:52:28.897Z,17.64
2023-02-27T19:56:29.377Z,17.63
2023-02-27T20:00:28.958Z,17.62
2023-02-27T20:04:28.982Z,17.62
2023-02-27T20:08:29.020Z,17.63
2023-02-27T20:12:29.043Z,17.61
2023-02-27T20:16:29.405Z,17.60
2023-02-27T20:20:31.721Z,17.60
2023-02-27T20:24:29.074Z,17.59
2023-02-27T20:28:29.022Z,17.58
2023-02-27T20:32:29.114Z,17.60
2023-02-27T20:36:28.958Z,17.58
2023-02-27T20:40:28.905Z,17.57
2023-02-27T20:44:28.892Z,17.57
2023-02-27T20:48:28.821Z,17.58
2023-02-27T20:52:28.799Z,17.57
2023-02-27T20:56:28.782Z,17.57
2023-02-27T21:00:28.701Z,17.57
2023-02-27T21:04:28.734Z,17.57
2023-02-27T21:08:28.637Z,17.57
2023-02-27T21:12:28.594Z,17.56
2023-02-27T21:16:28.567Z,17.56
2023-02-27T21:20:28.539Z,17.55
2023-02-27T21:24:28.510Z,17.54
2023-02-27T21:28:28.459Z,17.53
2023-02-27T21:32:28.408Z,17.53
2023-02-27T21:36:28.407Z,17.53
2023-02-27T21:40:28.376Z,17.52
2023-02-27T21:44:28.290Z,17.53
2023-02-27T21:48:28.245Z,17.52
2023-02-27T21:52:28.231Z,17.52
2023-02-27T21:56:28.522Z,17.52
2023-02-27T22:00:28.132Z,17.53
2023-02-27T22:04:28.102Z,17.51
2023-02-27T22:08:28.063Z,17.50
2023-02-27T22:12:28.038Z,17.49
2023-02-27T22:16:27.997Z,17.50
2023-02-27T22:20:28.046Z,17.49
2023-02-27T22:24:28.148Z,17.48
2023-02-27T22:28:28.204Z,17.47
2023-02-27T22:32:28.223Z,17.48
2023-02-27T22:36:28.245Z,17.47
2023-02-27T22:40:28.324Z,17.47
2023-02-27T22:44:28.337Z,17.46
2023-02-27T22:48:28.369Z,17.45
2023-02-27T22:52:28.467Z,17.46
2023-02-27T22:56:28.493Z,17.47
2023-02-27T23:00:28.506Z,17.46
2023-02-27T23:04:28.582Z,17.44
2023-02-27T23:08:28.621Z,17.44
2023-02-27T23:12:28.683Z,17.43
2023-02-27T23:16:28.839Z,17.43
2023-02-27T23:20:28.755Z,17.43
2023-02-27T23:24:28.784Z,17.44
2023-02-27T23:28:28.879Z,17.43
2023-02-27T23:32:28.945Z,17.43
2023-02-27T23:36:28.961Z,17.43
2023-02-27T23:40:28.980Z,17.42
2023-02-27T23:44:29.028Z,17.41
2023-02-27T23:48:29.088Z,17.41
2023-02-27T23:52:29.122Z,17.40
2023-02-27T23:56:29.156Z,17.42
